Capitol Logistics 2645

Operating for CKS



KCVG
Cincinnati/Northern Kentucky International Airport
Covington, Kentucky
RKSI
Incheon International Airport
Seoul,

Route Details

Aircraft Information
Primary: Boeing 747-400BCF
Backup: Not Available
Route Data
Distance: 5910nm
Duration: 14h 05m
Recm'd Route: LOVEY6 CADIZ J89 DLH J538 VBI YNE YYL YSF YZF YVQ 6700N/14000W 6702N/14100W 6700N/15000W OTZ B244 FRENK N735 ASBAT T634 MAGIT R213 JMU G212 HRB A588 CHI W107 SANKO A326 DONVO G597 AGAVO Y644 REBIT GUKDO GUKDO1E
Origin Wx: KCVG 191103Z 23005KT 2SM +TSRA BR SCT006 BKN048 OVC065 19/18 A3000 RMK AO2 LTG DSNT ALQDS TSB03 CIG 036 36R P0008 T01940178
Dest. Wx: RKSI 191100Z 33004KT 6000 NSC 20/16 Q1001 NOSIG
Notes: 1X PER WEEK